Terminal Aerodrome Forecast
Issued by NWS

Home | Current Version | Previous Version | Text Only | Print | Product List | Glossary On
Versions: 1 2 3 4 5 6 7 8 9 10 11 12 13 14 15 16 17 18 19 20 21
000
FTUS43 KDVN 260520
TAFBRL
TAF
KBRL 260520Z 2606/2706 17003KT P6SM BKN120
     FM260800 07003KT 5SM BR BKN120
     FM261100 VRB03KT 5SM BR VCTS BKN040CB
     FM261500 14006KT P6SM BKN040
      TEMPO 2615/2619 3SM TSRA BR BKN035CB
     FM261900 16005KT P6SM BKN050 PROB30 2619/2623 3SM TSRA BR
      BKN030CB=

USA.gov is the U.S. government's official web portal to all federal, state and local government web resources and services.